Aérodrome :
LOGIN :

S'inscrire | Disclaimer

   EN    FR    IT 

 










Légende :    VFR   VFR Marginal   IFR   IFR Intensif   IFR Très Intensif
Visi : 
Plafond : 
>= 8 km
>= 3000ft
5 à 8 km
1000 à 3000 ft
1500m à 5 km
500 à 1000 ft
800 à 1500m
200 à 500 ft
< 800m
< 200 ft
Symboles :   Orages  Brouillard  Fortes neiges  Fortes précipitations  Vent > 20 kt
SIGMETs :   Divers  Orages  Givrage  Turbulence  Onde Orograph.  Cendres Volcan.







- Altitude de l'aérodrome : 137 ft


LIPS - Istrana AFB Treviso

DERNIER METAR :
  • 220155Z 02006KT CAVOK 05/04 Q1030

METARs EXPIRÉS :
  • 220055Z 01006KT CAVOK 05/03 Q1031 RMK SKC VIS MIN 9999 WIND THR26 33004KT WIND THR08 01003KT BLU
  • 212355Z 01005KT CAVOK 05/03 Q1031 RMK SKC VIS MIN 9999 WIND THR26 33003KT WIND THR08 36002KT BLU

TAF TAF LIPS
Valide du 22 à 03h jusqu'au 22 à 12h UTC


220200Z 2203/2212 VRB05KT CAVOK
PROB30
TEMPO 2203/2206 5000 BR NSC
Pas de NOTAMs connus pour ce terrain.



MET'MAP, la Météo Aéronautique d'un coup d'oeil ! - Copyright ORBIFLY Décembre 2007 - Disclaimer

ORBIFLY MET'MAP TEAM :

Programmation & Développement : Alexandra Zaïnal
Conception & Développement : Baudouin d'Aumeries
Co-Programmation & Développement : Marc-Olivier Méhu
Soutien technique & logistique : Manuel Goepfert

Contact : metmap@orbifly.com




SOURCES & CREDITS :

   NOAA